createdAt,value
2023-01-05T00:01:11.301Z,4.20
2023-01-05T00:03:38.456Z,4.28
2023-01-05T00:06:11.965Z,4.35
2023-01-05T00:08:39.731Z,4.30
2023-01-05T00:11:34.663Z,4.50
2023-01-05T00:14:20.212Z,4.35
2023-01-05T00:17:06.269Z,4.50
2023-01-05T00:19:52.080Z,4.25
2023-01-05T00:22:30.535Z,4.50
2023-01-05T00:25:12.998Z,4.35
2023-01-05T00:27:41.951Z,4.40
2023-01-05T00:30:10.469Z,4.22
2023-01-05T00:32:37.353Z,4.30
2023-01-05T00:35:04.592Z,4.45
2023-01-05T00:37:33.517Z,4.70
2023-01-05T00:40:00.331Z,4.40
2023-01-05T00:42:27.611Z,4.60
2023-01-05T00:44:54.261Z,4.50
2023-01-05T00:47:20.904Z,4.40
2023-01-05T00:49:47.564Z,4.47
2023-01-05T00:52:14.208Z,4.60
2023-01-05T00:54:40.831Z,4.55
2023-01-05T00:57:07.544Z,4.38
2023-01-05T00:59:34.236Z,4.22
2023-01-05T01:02:01.299Z,4.05
2023-01-05T01:04:29.984Z,4.40
2023-01-05T01:06:56.697Z,4.78
2023-01-05T01:09:23.403Z,4.57
2023-01-05T01:14:16.584Z,4.35
2023-01-05T01:16:43.467Z,4.40
2023-01-05T01:19:20.233Z,4.30
2023-01-05T01:21:47.152Z,4.40
2023-01-05T01:24:18.463Z,4.40
2023-01-05T01:26:45.312Z,4.30
2023-01-05T01:29:12.071Z,4.50
2023-01-05T01:31:38.860Z,4.63
2023-01-05T01:34:05.724Z,4.40
2023-01-05T01:36:32.407Z,4.32
2023-01-05T01:38:59.072Z,4.22
2023-01-05T01:41:25.730Z,4.22
2023-01-05T01:43:55.100Z,4.35
2023-01-05T01:46:23.342Z,4.10
2023-01-05T01:48:56.383Z,4.45
2023-01-05T01:51:28.854Z,4.30
2023-01-05T01:54:01.267Z,4.47
2023-01-05T01:56:34.596Z,4.40
2023-01-05T01:59:01.621Z,4.47
2023-01-05T02:01:28.535Z,4.60
2023-01-05T02:03:56.408Z,4.32
2023-01-05T02:06:23.327Z,4.60
2023-01-05T02:08:50.452Z,4.18
2023-01-05T02:11:34.520Z,4.35
2023-01-05T02:14:26.231Z,4.40
2023-01-05T02:17:30.211Z,4.40
2023-01-05T02:20:32.097Z,4.20
2023-01-05T02:23:16.839Z,4.40
2023-01-05T02:26:08.422Z,4.57
2023-01-05T02:29:03.006Z,5.05
2023-01-05T02:32:01.575Z,5.18
2023-01-05T02:34:59.502Z,4.95
2023-01-05T02:37:47.367Z,4.95
2023-01-05T02:40:20.958Z,5.53
2023-01-05T02:42:51.196Z,5.80
2023-01-05T02:45:18.066Z,4.97
2023-01-05T02:47:45.663Z,5.15
2023-01-05T02:50:29.256Z,4.65
2023-01-05T02:52:57.703Z,5.18
2023-01-05T02:55:47.530Z,5.07
2023-01-05T02:58:26.079Z,4.90
2023-01-05T03:00:58.949Z,5.30
2023-01-05T03:03:31.778Z,4.85
2023-01-05T03:06:07.650Z,5.35
2023-01-05T03:08:38.818Z,5.05
2023-01-05T03:11:29.578Z,4.80
2023-01-05T03:14:13.694Z,5.50
2023-01-05T03:16:40.575Z,4.65
2023-01-05T03:19:39.604Z,5.32
2023-01-05T03:22:51.490Z,5.07
2023-01-05T03:25:41.101Z,5.72
2023-01-05T03:28:54.005Z,5.70
2023-01-05T03:32:04.419Z,5.57
2023-01-05T03:35:13.867Z,5.35
2023-01-05T03:38:01.800Z,4.90
2023-01-05T03:40:31.139Z,5.38
2023-01-05T03:42:57.871Z,5.22
2023-01-05T03:45:28.434Z,5.32
2023-01-05T03:47:56.015Z,4.93
2023-01-05T03:50:22.666Z,5.30
2023-01-05T03:52:49.301Z,5.80
2023-01-05T03:55:16.031Z,5.60
2023-01-05T03:57:42.649Z,5.95
2023-01-05T04:00:10.086Z,6.10
2023-01-05T04:02:36.776Z,5.90
2023-01-05T04:05:03.762Z,5.30
2023-01-05T04:07:30.362Z,5.43
2023-01-05T04:09:56.941Z,5.15
2023-01-05T04:12:23.543Z,5.40
2023-01-05T04:14:50.182Z,6.50
2023-01-05T04:17:16.791Z,5.55
2023-01-05T04:19:43.409Z,5.53
2023-01-05T04:22:10.088Z,5.32
2023-01-05T04:24:36.751Z,5.93
2023-01-05T04:27:03.481Z,5.40
2023-01-05T04:29:30.127Z,5.25
2023-01-05T04:31:56.899Z,6.25
2023-01-05T04:34:23.519Z,6.20
2023-01-05T04:36:50.702Z,6.00
2023-01-05T04:39:17.540Z,5.47
2023-01-05T04:41:44.262Z,5.85
2023-01-05T04:44:10.909Z,5.03
2023-01-05T04:46:37.553Z,6.20
2023-01-05T04:49:04.202Z,5.63
2023-01-05T04:51:30.941Z,5.32
2023-01-05T04:53:57.670Z,6.07
2023-01-05T04:56:24.404Z,5.78
2023-01-05T04:58:51.086Z,5.82
2023-01-05T05:01:17.918Z,5.80
2023-01-05T05:03:44.657Z,5.40
2023-01-05T05:06:11.517Z,5.70
2023-01-05T05:08:38.160Z,5.82
2023-01-05T05:11:05.766Z,5.22
2023-01-05T05:13:32.368Z,5.40
2023-01-05T05:15:59.064Z,6.20
2023-01-05T05:18:25.759Z,6.30
2023-01-05T05:20:52.977Z,5.30
2023-01-05T05:23:19.991Z,6.50
2023-01-05T05:25:51.165Z,5.70
2023-01-05T05:28:18.894Z,7.47
2023-01-05T05:30:45.635Z,5.88
2023-01-05T05:33:12.261Z,5.85
2023-01-05T05:35:38.878Z,5.90
2023-01-05T05:38:05.586Z,5.55
2023-01-05T05:40:32.209Z,6.13
2023-01-05T05:42:58.854Z,8.05
2023-01-05T05:45:25.488Z,5.70
2023-01-05T05:47:52.114Z,5.65
2023-01-05T05:50:18.772Z,5.93
2023-01-05T05:52:45.530Z,6.57
2023-01-05T05:55:12.269Z,5.40
2023-01-05T05:57:38.939Z,6.07
2023-01-05T06:00:06.376Z,6.07
2023-01-05T06:02:33.280Z,5.70
2023-01-05T06:04:59.939Z,6.13
2023-01-05T06:07:26.550Z,5.20
2023-01-05T06:09:53.183Z,5.78
2023-01-05T06:12:19.888Z,5.95
2023-01-05T06:14:46.606Z,5.35
2023-01-05T06:17:13.247Z,5.60
2023-01-05T06:19:39.876Z,5.95
2023-01-05T06:22:06.566Z,5.55
2023-01-05T06:24:33.188Z,6.00
2023-01-05T06:26:59.838Z,5.90
2023-01-05T06:29:26.477Z,6.22
2023-01-05T06:31:53.162Z,5.57
2023-01-05T06:34:19.792Z,5.63
2023-01-05T06:36:46.433Z,5.60
2023-01-05T06:39:13.738Z,5.90
2023-01-05T06:41:40.381Z,5.40
2023-01-05T06:44:07.022Z,5.60
2023-01-05T06:46:33.663Z,5.20
2023-01-05T06:49:00.330Z,5.55
2023-01-05T06:51:26.967Z,5.50
2023-01-05T06:53:53.593Z,7.22
2023-01-05T06:56:20.231Z,5.05
2023-01-05T06:58:46.868Z,5.45
2023-01-05T07:01:13.576Z,7.40
2023-01-05T07:03:40.454Z,5.38
2023-01-05T07:06:11.456Z,5.28
2023-01-05T07:08:41.847Z,6.13
2023-01-05T07:11:08.476Z,5.70
2023-01-05T07:13:35.114Z,5.72
2023-01-05T07:16:01.872Z,5.68
2023-01-05T07:18:28.531Z,5.70
2023-01-05T07:20:55.138Z,5.20
2023-01-05T07:23:21.781Z,5.43
2023-01-05T07:25:48.398Z,7.75
2023-01-05T07:28:15.153Z,5.75
2023-01-05T07:30:41.773Z,5.85
2023-01-05T07:33:08.814Z,5.18
2023-01-05T07:35:35.457Z,5.40
2023-01-05T07:38:02.115Z,4.95
2023-01-05T07:40:28.850Z,5.10
2023-01-05T07:42:55.547Z,5.28
2023-01-05T07:45:22.260Z,5.05
2023-01-05T07:47:49.123Z,4.70
2023-01-05T07:50:15.735Z,4.80
2023-01-05T07:52:42.471Z,5.65
2023-01-05T07:55:09.482Z,4.65
2023-01-05T07:57:36.154Z,5.13
2023-01-05T08:00:03.733Z,5.20
2023-01-05T08:02:35.685Z,5.38
2023-01-05T08:05:02.867Z,5.57
2023-01-05T08:07:29.577Z,5.95
2023-01-05T08:10:15.044Z,5.88
2023-01-05T08:13:00.454Z,5.13
2023-01-05T08:15:27.098Z,5.20
2023-01-05T08:17:53.732Z,6.28
2023-01-05T08:20:20.390Z,5.60
2023-01-05T08:22:51.600Z,6.68
2023-01-05T08:25:18.728Z,5.35
2023-01-05T08:27:45.956Z,6.65
2023-01-05T08:30:13.556Z,5.38
2023-01-05T08:32:41.351Z,6.05
2023-01-05T08:35:08.769Z,5.80
2023-01-05T08:37:35.571Z,5.40
2023-01-05T08:40:02.665Z,5.95
2023-01-05T08:42:29.785Z,5.15
2023-01-05T08:44:56.840Z,5.13
2023-01-05T08:47:28.005Z,5.45
2023-01-05T08:49:55.370Z,5.00
2023-01-05T08:52:23.178Z,5.22
2023-01-05T08:54:50.209Z,5.00
2023-01-05T08:57:16.884Z,5.95
2023-01-05T08:59:43.532Z,6.50
2023-01-05T09:02:13.524Z,5.50
2023-01-05T09:04:40.285Z,5.88
2023-01-05T09:07:06.932Z,5.50
2023-01-05T09:09:33.678Z,5.80
2023-01-05T09:12:00.370Z,5.10
2023-01-05T09:14:27.078Z,5.43
2023-01-05T09:17:09.559Z,6.55
2023-01-05T09:19:36.860Z,5.07
2023-01-05T09:22:03.686Z,5.30
2023-01-05T09:24:30.424Z,5.80
2023-01-05T09:26:57.301Z,6.00
2023-01-05T09:29:24.019Z,6.25
2023-01-05T09:31:50.653Z,5.30
2023-01-05T09:34:19.030Z,5.50
2023-01-05T09:36:46.097Z,7.18
2023-01-05T09:39:12.876Z,5.43
2023-01-05T09:41:53.869Z,5.97
2023-01-05T09:44:30.086Z,5.80
2023-01-05T09:47:06.410Z,5.72
2023-01-05T09:49:34.674Z,5.55
2023-01-05T09:52:09.079Z,5.40
2023-01-05T09:54:37.706Z,4.97
2023-01-05T09:57:10.518Z,4.88
2023-01-05T09:59:41.280Z,5.05
2023-01-05T10:02:39.852Z,6.18
2023-01-05T10:05:07.365Z,5.65
2023-01-05T10:08:08.070Z,5.00
2023-01-05T10:11:10.305Z,5.30
2023-01-05T10:13:41.787Z,5.40
2023-01-05T10:16:16.480Z,5.85
2023-01-05T10:18:43.310Z,5.65
2023-01-05T10:21:23.729Z,6.20
2023-01-05T10:24:02.342Z,7.30
2023-01-05T10:26:58.657Z,5.50
2023-01-05T10:29:37.709Z,6.25
2023-01-05T10:32:26.160Z,6.00
2023-01-05T10:34:59.994Z,6.43
2023-01-05T10:37:26.580Z,5.95
2023-01-05T10:40:11.198Z,6.25
2023-01-05T10:43:13.609Z,6.10
2023-01-05T10:46:03.026Z,5.32
2023-01-05T10:48:30.081Z,6.25
2023-01-05T10:50:57.753Z,6.03
2023-01-05T10:53:26.460Z,7.10
2023-01-05T10:56:10.337Z,6.50
2023-01-05T10:58:39.039Z,5.63
2023-01-05T11:01:14.809Z,7.10
2023-01-05T11:06:34.853Z,6.40
2023-01-05T11:09:26.148Z,6.22
2023-01-05T11:12:01.035Z,5.63
2023-01-05T11:14:30.607Z,5.80
2023-01-05T11:17:03.507Z,5.30
2023-01-05T11:19:35.612Z,5.28
2023-01-05T11:22:02.603Z,6.60
2023-01-05T11:24:31.256Z,6.50
2023-01-05T11:27:01.445Z,6.78
2023-01-05T11:29:29.349Z,5.55
2023-01-05T11:31:58.676Z,6.03
2023-01-05T11:34:37.994Z,5.78
2023-01-05T11:37:12.302Z,5.35
2023-01-05T11:39:51.713Z,7.88
2023-01-05T11:42:26.467Z,6.63
2023-01-05T11:45:02.103Z,5.82
2023-01-05T11:47:28.756Z,6.00
2023-01-05T11:50:04.007Z,6.15
2023-01-05T11:52:35.815Z,8.18
2023-01-05T11:55:33.795Z,5.60
2023-01-05T11:58:14.347Z,5.35
2023-01-05T12:00:46.629Z,5.93
2023-01-05T12:03:50.028Z,6.18
2023-01-05T12:06:33.115Z,5.10
2023-01-05T12:09:05.790Z,5.10
2023-01-05T12:11:47.629Z,5.40
2023-01-05T12:14:35.622Z,5.30
2023-01-05T12:17:14.745Z,6.07
2023-01-05T12:19:53.641Z,5.50
2023-01-05T12:22:38.295Z,6.13
2023-01-05T12:25:40.510Z,5.55
2023-01-05T12:28:39.596Z,5.13
2023-01-05T12:34:23.237Z,5.35
2023-01-05T12:37:17.866Z,4.72
2023-01-05T12:40:23.841Z,5.13
2023-01-05T12:43:05.891Z,5.30
2023-01-05T12:45:54.468Z,5.00
2023-01-05T12:48:50.825Z,4.80
2023-01-05T12:51:35.860Z,6.22
2023-01-05T12:54:26.640Z,4.95
2023-01-05T12:57:09.059Z,5.15
2023-01-05T12:59:48.228Z,6.07
2023-01-05T13:02:14.958Z,5.18
2023-01-05T13:04:57.259Z,5.97
2023-01-05T13:07:53.969Z,4.88
2023-01-05T13:10:32.834Z,6.30
2023-01-05T13:13:09.304Z,5.78
2023-01-05T13:15:46.097Z,6.07
2023-01-05T13:18:18.731Z,6.07
2023-01-05T13:21:01.816Z,5.82
2023-01-05T13:23:33.360Z,5.40
2023-01-05T13:26:06.994Z,4.80
2023-01-05T13:28:35.038Z,5.00
2023-01-05T13:31:21.027Z,4.63
2023-01-05T13:34:16.798Z,5.45
2023-01-05T13:37:22.393Z,4.50
2023-01-05T13:40:14.855Z,5.90
2023-01-05T13:42:56.547Z,4.72
2023-01-05T13:45:44.754Z,4.90
2023-01-05T13:48:44.188Z,5.07
2023-01-05T13:51:23.814Z,5.07
2023-01-05T13:53:52.973Z,5.50
2023-01-05T13:56:23.671Z,5.40
2023-01-05T13:58:59.233Z,5.10
2023-01-05T14:01:39.645Z,4.90
2023-01-05T14:04:37.128Z,5.10
2023-01-05T14:07:16.130Z,5.28
2023-01-05T14:09:53.926Z,5.68
2023-01-05T14:12:22.239Z,5.05
2023-01-05T14:15:00.485Z,4.93
2023-01-05T14:17:55.611Z,5.80
2023-01-05T14:20:49.537Z,5.28
2023-01-05T14:23:22.666Z,6.32
2023-01-05T14:25:55.500Z,5.13
2023-01-05T14:28:28.113Z,5.95
2023-01-05T14:31:18.993Z,5.35
2023-01-05T14:33:59.804Z,6.00
2023-01-05T14:36:37.400Z,6.22
2023-01-05T14:39:08.369Z,5.75
2023-01-05T14:41:35.185Z,6.05
2023-01-05T14:44:05.549Z,5.28
2023-01-05T14:46:56.145Z,6.30
2023-01-05T14:49:52.123Z,6.55
2023-01-05T14:52:40.143Z,7.20
2023-01-05T14:55:27.174Z,6.10
2023-01-05T14:58:15.460Z,5.80
2023-01-05T15:00:58.255Z,6.78
2023-01-05T15:03:35.414Z,5.60
2023-01-05T15:06:17.274Z,6.45
2023-01-05T15:09:13.974Z,5.90
2023-01-05T15:12:03.507Z,6.72
2023-01-05T15:14:54.147Z,6.95
2023-01-05T15:17:32.786Z,6.20
2023-01-05T15:20:44.513Z,8.25
2023-01-05T15:23:42.138Z,6.00
2023-01-05T15:26:48.413Z,6.35
2023-01-05T15:29:54.594Z,6.43
2023-01-05T15:32:39.380Z,5.65
2023-01-05T15:35:47.340Z,6.18
2023-01-05T15:38:20.136Z,5.70
2023-01-05T15:40:47.914Z,5.43
2023-01-05T15:43:16.935Z,6.60
2023-01-05T15:45:50.168Z,5.85
2023-01-05T15:48:27.404Z,5.70
2023-01-05T15:50:56.931Z,6.22
2023-01-05T15:53:41.729Z,6.70
2023-01-05T15:56:33.876Z,6.10
2023-01-05T15:59:01.619Z,6.53
2023-01-05T16:01:29.229Z,8.90
2023-01-05T16:04:13.008Z,6.93
2023-01-05T16:06:40.913Z,5.97
2023-01-05T16:09:21.580Z,5.63
2023-01-05T16:11:49.993Z,6.00
2023-01-05T16:14:34.837Z,6.43
2023-01-05T16:17:14.710Z,6.15
2023-01-05T16:19:52.053Z,6.03
2023-01-05T16:22:21.338Z,6.57
2023-01-05T16:24:56.842Z,6.22
2023-01-05T16:27:23.856Z,6.90
2023-01-05T16:29:50.932Z,8.25
2023-01-05T16:32:28.153Z,6.82
2023-01-05T16:35:24.752Z,6.68
2023-01-05T16:38:27.729Z,6.20
2023-01-05T16:41:10.923Z,6.10
2023-01-05T16:43:45.450Z,6.55
2023-01-05T16:46:20.198Z,5.95
2023-01-05T16:49:34.034Z,6.40
2023-01-05T16:52:01.407Z,6.45
2023-01-05T16:54:37.068Z,6.28
2023-01-05T16:57:29.015Z,6.60
2023-01-05T16:59:56.366Z,7.38
2023-01-05T17:02:37.655Z,6.35
2023-01-05T17:05:06.124Z,5.93
2023-01-05T17:07:34.147Z,6.60
2023-01-05T17:10:00.822Z,7.10
2023-01-05T17:12:27.595Z,5.65
2023-01-05T17:14:58.612Z,5.95
2023-01-05T17:17:27.183Z,6.30
2023-01-05T17:19:54.291Z,6.15
2023-01-05T17:22:21.322Z,6.15
2023-01-05T17:24:48.303Z,7.22
2023-01-05T17:27:15.084Z,5.85
2023-01-05T17:29:41.702Z,6.32
2023-01-05T17:32:11.082Z,5.90
2023-01-05T17:34:39.584Z,6.22
2023-01-05T17:37:07.281Z,5.97
2023-01-05T17:39:33.908Z,8.20
2023-01-05T17:42:22.651Z,5.60
2023-01-05T17:44:51.830Z,6.40
2023-01-05T17:47:18.818Z,6.07
2023-01-05T17:49:45.573Z,6.28
2023-01-05T17:52:13.779Z,6.25
2023-01-05T17:54:41.742Z,5.80
2023-01-05T17:57:12.318Z,6.63
2023-01-05T17:59:39.034Z,6.35
2023-01-05T18:02:05.690Z,7.50
2023-01-05T18:04:32.376Z,5.88
2023-01-05T18:07:00.891Z,6.43
2023-01-05T18:09:27.613Z,6.60
2023-01-05T18:11:54.312Z,7.32
2023-01-05T18:14:20.964Z,6.38
2023-01-05T18:16:47.656Z,6.35
2023-01-05T18:21:46.310Z,6.38
2023-01-05T18:24:12.955Z,6.70
2023-01-05T18:26:39.702Z,5.85
2023-01-05T18:29:06.531Z,5.70
2023-01-05T18:31:34.857Z,7.03
2023-01-05T18:34:03.733Z,6.13
2023-01-05T18:36:30.353Z,6.72
2023-01-05T18:38:56.983Z,7.30
2023-01-05T18:41:25.043Z,6.80
2023-01-05T18:43:51.774Z,5.80
2023-01-05T18:46:18.430Z,7.15
2023-01-05T18:48:50.383Z,6.07
2023-01-05T18:51:17.618Z,7.25
2023-01-05T18:53:44.280Z,7.00
2023-01-05T18:56:12.396Z,6.55
2023-01-05T18:58:39.091Z,7.25
2023-01-05T19:01:14.519Z,6.75
2023-01-05T19:03:41.884Z,6.50
2023-01-05T19:06:12.114Z,7.95
2023-01-05T19:08:39.517Z,7.18
2023-01-05T19:11:22.676Z,8.27
2023-01-05T19:13:50.521Z,6.70
2023-01-05T19:16:19.185Z,6.95
2023-01-05T19:18:51.457Z,6.90
2023-01-05T19:21:18.483Z,8.90
2023-01-05T19:23:45.196Z,6.75
2023-01-05T19:26:11.852Z,7.40
2023-01-05T19:28:40.265Z,7.20
2023-01-05T19:31:14.991Z,6.95
2023-01-05T19:33:42.292Z,7.88
2023-01-05T19:36:14.607Z,6.93
2023-01-05T19:38:41.544Z,8.57
2023-01-05T19:41:11.595Z,6.93
2023-01-05T19:43:41.556Z,7.32
2023-01-05T19:46:13.351Z,7.25
2023-01-05T19:48:43.929Z,7.90
2023-01-05T19:51:16.132Z,8.68
2023-01-05T19:53:43.831Z,7.10
2023-01-05T19:56:13.553Z,8.02
2023-01-05T19:58:41.625Z,7.00
2023-01-05T20:01:10.195Z,7.30
2023-01-05T20:03:36.985Z,6.95
2023-01-05T20:06:12.603Z,7.30
2023-01-05T20:08:40.077Z,6.60
2023-01-05T20:11:13.449Z,6.88
2023-01-05T20:13:40.517Z,7.63
2023-01-05T20:16:12.289Z,8.07
2023-01-05T20:18:39.532Z,6.90
2023-01-05T20:21:08.342Z,6.03
2023-01-05T20:23:37.779Z,7.55
2023-01-05T20:26:14.252Z,6.88
2023-01-05T20:28:41.605Z,6.75
2023-01-05T20:31:26.845Z,6.80
2023-01-05T20:33:55.119Z,8.30
2023-01-05T20:36:22.840Z,7.40
2023-01-05T20:38:49.764Z,7.45
2023-01-05T20:41:20.798Z,6.95
2023-01-05T20:43:48.592Z,7.03
2023-01-05T20:46:17.398Z,6.65
2023-01-05T20:48:44.724Z,7.18
2023-01-05T20:51:13.684Z,7.03
2023-01-05T20:53:41.345Z,7.40
2023-01-05T20:56:12.516Z,7.20
2023-01-05T20:58:40.593Z,7.00
2023-01-05T21:01:10.707Z,7.65
2023-01-05T21:03:39.313Z,7.55
2023-01-05T21:06:08.945Z,7.78
2023-01-05T21:08:36.151Z,6.88
2023-01-05T21:11:04.366Z,6.95
2023-01-05T21:13:33.098Z,6.63
2023-01-05T21:16:04.040Z,7.10
2023-01-05T21:18:32.608Z,7.82
2023-01-05T21:20:59.997Z,7.25
2023-01-05T21:23:26.751Z,7.40
2023-01-05T21:26:06.476Z,9.20
2023-01-05T21:28:38.773Z,6.95
2023-01-05T21:31:08.038Z,8.68
2023-01-05T21:33:36.277Z,7.70
2023-01-05T21:36:04.669Z,8.07
2023-01-05T21:39:02.299Z,7.57
2023-01-05T21:41:38.248Z,8.02
2023-01-05T21:44:05.084Z,7.95
2023-01-05T21:46:31.733Z,6.85
2023-01-05T21:48:58.356Z,8.10
2023-01-05T21:51:43.562Z,6.85
2023-01-05T21:54:46.727Z,7.60
2023-01-05T21:57:13.613Z,7.05
2023-01-05T21:59:41.080Z,7.28
2023-01-05T22:02:08.084Z,7.07
2023-01-05T22:04:35.135Z,7.95
2023-01-05T22:07:05.168Z,7.38
2023-01-05T22:09:31.856Z,7.60
2023-01-05T22:11:58.552Z,6.80
2023-01-05T22:14:25.180Z,7.03
2023-01-05T22:16:52.079Z,7.22
2023-01-05T22:19:18.741Z,9.10
2023-01-05T22:21:45.503Z,8.00
2023-01-05T22:24:12.902Z,8.23
2023-01-05T22:26:39.761Z,8.65
2023-01-05T22:29:06.475Z,7.70
2023-01-05T22:31:35.504Z,7.53
2023-01-05T22:34:02.971Z,7.75
2023-01-05T22:36:30.506Z,8.05
2023-01-05T22:38:58.023Z,7.38
2023-01-05T22:41:29.979Z,7.53
2023-01-05T22:43:57.525Z,7.65
2023-01-05T22:46:27.868Z,7.55
2023-01-05T22:48:55.882Z,6.53
2023-01-05T22:51:28.479Z,6.70
2023-01-05T22:53:55.794Z,7.35
2023-01-05T22:56:24.592Z,6.90
2023-01-05T22:58:51.611Z,7.25
2023-01-05T23:01:32.333Z,8.32
2023-01-05T23:04:00.308Z,6.75
2023-01-05T23:06:27.659Z,6.65
2023-01-05T23:08:55.063Z,6.30
2023-01-05T23:11:28.187Z,6.05
2023-01-05T23:13:55.971Z,6.38
2023-01-05T23:16:25.247Z,6.00
2023-01-05T23:18:52.850Z,6.15
2023-01-05T23:21:21.574Z,7.15
2023-01-05T23:23:48.363Z,6.20
2023-01-05T23:26:16.131Z,6.45
2023-01-05T23:28:43.924Z,6.28
2023-01-05T23:31:14.111Z,5.63
2023-01-05T23:33:41.210Z,6.15
2023-01-05T23:36:09.150Z,6.65
2023-01-05T23:38:37.188Z,5.80
2023-01-05T23:41:06.210Z,6.07
2023-01-05T23:43:33.801Z,5.85
2023-01-05T23:46:03.288Z,5.88
2023-01-05T23:48:30.353Z,6.30
2023-01-05T23:50:57.702Z,6.10
2023-01-05T23:53:25.525Z,5.90
2023-01-05T23:55:52.487Z,5.97
2023-01-05T23:58:19.203Z,7.15
